Time;durP1;ratioP1;P1;durP2;ratioP2;P2;SDS_P1;SDS_P2;PMS_P1;PMS_P2;Temp;Humidity;BMP_temperature;BMP_pressure;BME280_temperature;BME280_humidity;BME280_pressure;Samples;Min_cycle;Max_cycle;Signal;HPM_P1;HPM_P2
2023/01/05 00:01:57;;;;;;;109.93;70.22;;;5.80;99.90;;;;;;5094774;28;20588;-65
2023/01/05 00:04:23;;;;;;;112.43;68.32;;;5.80;99.90;;;;;;5094983;28;20133;-69
2023/01/05 00:06:48;;;;;;;102.15;63.20;;;5.80;99.90;;;;;;5076792;28;20028;-67
2023/01/05 00:09:16;;;;;;;88.70;57.28;;;5.80;99.90;;;;;;5094849;28;20020;-71
2023/01/05 00:22:54;;;;;;;125.18;76.18;;;5.60;99.90;;;;;;5094585;28;20547;-70
2023/01/05 00:25:27;;;;;;;134.05;79.82;;;5.60;99.90;;;;;;5076348;28;20024;-64
2023/01/05 00:27:55;;;;;;;122.15;74.78;;;5.60;99.90;;;;;;5094535;28;20024;-63
2023/01/05 00:30:25;;;;;;;110.18;68.13;;;5.60;99.90;;;;;;5094147;28;20024;-70
2023/01/05 00:32:51;;;;;;;117.55;72.93;;;5.60;99.90;;;;;;5094491;28;20027;-65
2023/01/05 00:35:17;;;;;;;115.60;69.90;;;5.60;99.90;;;;;;5094362;28;20027;-71
2023/01/05 00:37:44;;;;;;;133.00;81.82;;;5.50;99.90;;;;;;5094253;28;20031;-64
2023/01/05 00:40:12;;;;;;;136.85;86.10;;;5.60;99.90;;;;;;5094406;28;20028;-68
2023/01/05 00:42:38;;;;;;;130.20;80.25;;;5.50;99.90;;;;;;5094384;28;20101;-65
2023/01/05 00:45:06;;;;;;;103.22;69.18;;;5.40;99.90;;;;;;5093920;28;20027;-62
2023/01/05 00:47:32;;;;;;;125.10;78.40;;;5.40;99.90;;;;;;5076199;28;20447;-66
2023/01/05 00:49:58;;;;;;;120.07;74.68;;;5.50;99.90;;;;;;5094259;28;20104;-61
2023/01/05 00:52:24;;;;;;;104.28;65.38;;;5.50;99.90;;;;;;5093913;28;20048;-67
2023/01/05 00:54:49;;;;;;;92.65;62.88;;;5.50;99.90;;;;;;5093538;28;20505;-65
2023/01/05 00:57:15;;;;;;;93.13;58.78;;;5.50;99.90;;;;;;5094098;28;20028;-66
2023/01/05 00:59:41;;;;;;;81.53;53.58;;;5.50;99.90;;;;;;5093476;28;20074;-65
2023/01/05 01:02:08;;;;;;;86.72;55.88;;;5.50;99.90;;;;;;5094119;28;20052;-69
2023/01/05 01:04:34;;;;;;;96.47;61.97;;;5.50;99.90;;;;;;5094058;28;20059;-66
2023/01/05 01:07:01;;;;;;;107.95;67.68;;;5.50;99.90;;;;;;5093918;28;20016;-65
2023/01/05 01:09:28;;;;;;;78.80;52.63;;;5.40;99.90;;;;;;5093919;28;20027;-69
2023/01/05 01:11:53;;;;;;;95.78;58.78;;;5.30;99.90;;;;;;5093988;28;20020;-63
2023/01/05 01:14:19;;;;;;;77.65;50.22;;;5.40;99.90;;;;;;5093563;28;20069;-63
2023/01/05 01:16:45;;;;;;;70.10;46.92;;;5.40;99.90;;;;;;5093757;28;20505;-69
2023/01/05 01:19:16;;;;;;;63.60;42.42;;;5.40;99.90;;;;;;5093920;28;20043;-66
2023/01/05 01:21:42;;;;;;;82.18;53.47;;;5.30;99.90;;;;;;5093655;28;20051;-63
2023/01/05 01:24:13;;;;;;;66.90;44.65;;;5.30;99.90;;;;;;5093717;28;20486;-67
2023/01/05 01:26:39;;;;;;;67.82;44.13;;;5.30;99.90;;;;;;5093899;28;20024;-64
2023/01/05 01:29:04;;;;;;;67.22;45.30;;;5.20;99.90;;;;;;5093486;28;20497;-65
2023/01/05 01:31:30;;;;;;;64.28;42.53;;;5.20;99.90;;;;;;5093636;28;20038;-65
2023/01/05 01:33:56;;;;;;;54.75;38.40;;;5.20;99.90;;;;;;5093974;28;20069;-66
2023/01/05 01:36:21;;;;;;;55.03;36.85;;;5.20;99.90;;;;;;5093361;28;20039;-64
2023/01/05 01:38:47;;;;;;;69.70;44.90;;;5.20;99.90;;;;;;5075726;28;20070;-66
2023/01/05 01:41:13;;;;;;;54.17;36.55;;;5.10;99.90;;;;;;5093576;28;20016;-63
2023/01/05 01:43:43;;;;;;;48.70;34.47;;;5.10;99.90;;;;;;5075418;28;20016;-67
2023/01/05 01:46:10;;;;;;;53.83;35.85;;;5.10;99.90;;;;;;5093664;28;20079;-61
2023/01/05 01:48:37;;;;;;;49.75;34.78;;;5.10;99.90;;;;;;5093638;28;20016;-65
2023/01/05 01:51:10;;;;;;;51.13;35.28;;;5.10;99.90;;;;;;5093459;28;20046;-61
2023/01/05 01:53:48;;;;;;;61.50;41.65;;;5.10;99.90;;;;;;5093470;28;20025;-64
2023/01/05 01:56:17;;;;;;;59.50;40.28;;;5.00;99.90;;;;;;5093341;28;20036;-68
2023/01/05 01:58:43;;;;;;;46.60;32.15;;;4.90;99.90;;;;;;5093346;28;20170;-62
2023/01/05 02:01:10;;;;;;;58.42;37.97;;;4.80;99.90;;;;;;5093495;28;20043;-65
2023/01/05 02:03:36;;;;;;;51.25;34.78;;;4.80;99.90;;;;;;5093338;28;20027;-68
2023/01/05 02:06:03;;;;;;;44.47;30.52;;;4.80;99.90;;;;;;5096789;28;20154;-64
2023/01/05 02:08:31;;;;;;;44.78;29.60;;;4.80;99.90;;;;;;5097169;28;20381;-68
2023/01/05 02:11:21;;;;;;;60.20;38.40;;;4.80;99.90;;;;;;5096990;28;20039;-64
2023/01/05 02:13:58;;;;;;;63.35;42.00;;;4.80;99.90;;;;;;5097292;28;20024;-68
2023/01/05 02:16:26;;;;;;;67.93;41.83;;;4.80;99.90;;;;;;5096756;28;20035;-67
2023/01/05 02:19:20;;;;;;;60.15;36.72;;;4.80;99.90;;;;;;5097115;28;20023;-67
2023/01/05 02:22:08;;;;;;;93.90;56.55;;;4.80;99.90;;;;;;5096775;28;20020;-64
2023/01/05 02:25:00;;;;;;;123.15;73.57;;;4.70;99.90;;;;;;5083396;28;20047;-66
2023/01/05 02:27:53;;;;;;;82.57;51.78;;;4.50;99.90;;;;;;5097069;28;20039;-66
2023/01/05 02:30:58;;;;;;;82.05;50.50;;;4.50;99.90;;;;;;5096742;28;20028;-67
2023/01/05 02:33:53;;;;;;;70.07;45.35;;;4.70;99.90;;;;;;5096703;28;20107;-63
2023/01/05 02:36:35;;;;;;;79.05;47.97;;;4.70;99.90;;;;;;5096645;28;20032;-63
2023/01/05 02:39:37;;;;;;;105.22;60.88;;;4.80;99.90;;;;;;5096578;28;20024;-63
2023/01/05 02:42:13;;;;;;;74.30;46.38;;;4.80;99.90;;;;;;5096517;28;20024;-66
2023/01/05 02:44:38;;;;;;;59.30;38.97;;;4.70;99.90;;;;;;5096631;28;20060;-60
2023/01/05 02:47:26;;;;;;;52.08;33.45;;;4.60;99.90;;;;;;5096419;28;20051;-64
2023/01/05 02:50:02;;;;;;;46.13;30.67;;;4.60;99.90;;;;;;5078112;28;20028;-66
2023/01/05 02:52:36;;;;;;;44.15;28.73;;;4.70;99.90;;;;;;5096285;28;20060;-67
2023/01/05 02:55:04;;;;;;;;;;;4.70;99.90;;;;;;5096583;28;20020;-63
2023/01/05 02:57:49;;;;;;;36.80;24.23;;;4.70;99.90;;;;;;5096064;28;19942;-61
2023/01/05 03:00:43;;;;;;;32.40;22.52;;;4.60;99.90;;;;;;5078187;28;20091;-65
2023/01/05 03:03:39;;;;;;;35.83;24.37;;;4.50;99.90;;;;;;5096226;28;20481;-64
2023/01/05 03:06:25;;;;;;;35.15;23.55;;;4.60;99.90;;;;;;5096068;28;20089;-68
2023/01/05 03:08:56;;;;;;;38.70;25.85;;;4.70;99.90;;;;;;5095944;28;20381;-70
2023/01/05 03:14:22;;;;;;;33.25;21.85;;;4.60;99.90;;;;;;5096158;28;20031;-68
2023/01/05 03:16:50;;;;;;;38.65;23.40;;;4.60;99.90;;;;;;5095213;28;20043;-67
2023/01/05 03:19:39;;;;;;;38.58;24.17;;;4.60;99.90;;;;;;5095907;28;20099;-64
2023/01/05 03:36:49;;;;;;;75.43;50.83;;;4.50;99.90;;;;;;5094949;28;20047;-63
2023/01/05 03:39:16;;;;;;;64.32;43.42;;;4.40;99.90;;;;;;5095295;28;20043;-71
2023/01/05 03:41:43;;;;;;;60.58;38.55;;;4.40;99.90;;;;;;5095512;28;20016;-68
2023/01/05 03:44:09;;;;;;;76.70;47.33;;;4.50;99.90;;;;;;5095303;28;20107;-69
2023/01/05 03:46:35;;;;;;;69.72;43.55;;;4.50;99.90;;;;;;5095333;28;20024;-63
2023/01/05 03:49:00;;;;;;;56.42;37.88;;;4.60;99.90;;;;;;5095173;28;20068;-60
2023/01/05 03:51:26;;;;;;;59.95;37.00;;;4.60;99.90;;;;;;5095221;28;20104;-68
2023/01/05 03:53:52;;;;;;;57.67;35.22;;;4.60;99.90;;;;;;5095043;28;20016;-61
2023/01/05 03:56:17;;;;;;;52.45;35.00;;;4.60;99.90;;;;;;5095142;28;20503;-64
2023/01/05 03:58:43;;;;;;;52.63;33.13;;;4.60;99.90;;;;;;5094905;28;20040;-69
2023/01/05 04:01:09;;;;;;;44.60;29.58;;;4.60;99.90;;;;;;5095046;28;20032;-66
2023/01/05 04:03:35;;;;;;;38.28;26.20;;;4.60;99.90;;;;;;5076786;28;20024;-63
2023/01/05 04:06:01;;;;;;;35.42;24.17;;;4.50;99.90;;;;;;5076878;28;20118;-69
2023/01/05 04:08:26;;;;;;;36.70;24.77;;;4.50;99.90;;;;;;5094841;28;20099;-67
2023/01/05 04:10:53;;;;;;;30.73;21.48;;;4.60;99.90;;;;;;5095090;28;20104;-64
2023/01/05 04:13:19;;;;;;;33.97;22.25;;;4.50;99.90;;;;;;5094800;28;20386;-69
2023/01/05 04:15:44;;;;;;;25.45;17.88;;;4.50;99.90;;;;;;5094842;28;20024;-67
2023/01/05 04:18:10;;;;;;;30.65;20.52;;;4.50;99.90;;;;;;5094704;28;20029;-62
2023/01/05 04:20:36;;;;;;;24.40;17.38;;;4.50;99.90;;;;;;5094458;28;20024;-68
2023/01/05 04:23:01;;;;;;;26.45;17.90;;;4.50;99.90;;;;;;5076577;28;20020;-62
2023/01/05 04:25:27;;;;;;;50.20;29.92;;;4.40;99.90;;;;;;5094658;28;20537;-68
2023/01/05 04:27:53;;;;;;;60.25;35.90;;;4.50;99.90;;;;;;5075627;28;20069;-66
2023/01/05 04:30:20;;;;;;;43.78;28.80;;;4.40;99.90;;;;;;5094271;28;20028;-68
2023/01/05 04:32:46;;;;;;;45.20;29.10;;;4.40;99.90;;;;;;5094488;28;20020;-69
2023/01/05 04:35:11;;;;;;;64.82;40.38;;;4.40;99.90;;;;;;5094270;28;20513;-66
2023/01/05 04:37:37;;;;;;;43.45;29.48;;;4.40;99.90;;;;;;5094238;28;20024;-69
2023/01/05 04:40:04;;;;;;;41.30;26.60;;;4.30;99.90;;;;;;5094695;28;20019;-65
2023/01/05 04:42:29;;;;;;;37.80;24.88;;;4.30;99.90;;;;;;5094331;28;20012;-61
2023/01/05 04:44:55;;;;;;;32.75;22.27;;;4.40;99.90;;;;;;5094238;28;20047;-64
2023/01/05 04:47:21;;;;;;;33.28;23.23;;;4.40;99.90;;;;;;5094377;28;20087;-69
2023/01/05 04:49:46;;;;;;;29.60;20.55;;;4.30;99.90;;;;;;5076175;28;20069;-68
2023/01/05 04:52:12;;;;;;;31.33;20.80;;;4.30;99.90;;;;;;5094178;28;20047;-69
2023/01/05 04:54:38;;;;;;;29.20;19.63;;;4.30;99.90;;;;;;5094193;28;20462;-67
2023/01/05 04:57:03;;;;;;;27.73;19.58;;;4.30;99.90;;;;;;5094060;28;20018;-64
2023/01/05 04:59:29;;;;;;;29.15;19.60;;;4.30;99.90;;;;;;5093889;28;20043;-65
2023/01/05 05:01:55;;;;;;;29.30;18.48;;;4.30;99.90;;;;;;5093933;28;20020;-62
2023/01/05 05:04:20;;;;;;;23.88;16.33;;;4.30;99.90;;;;;;5094231;28;20386;-67
2023/01/05 05:06:46;;;;;;;23.27;16.02;;;4.30;99.90;;;;;;5093913;28;20077;-61
2023/01/05 05:09:12;;;;;;;30.75;20.67;;;4.30;99.90;;;;;;5093929;28;20035;-65
2023/01/05 05:11:37;;;;;;;47.33;28.42;;;4.20;99.90;;;;;;5093923;28;20020;-67
2023/01/05 05:14:03;;;;;;;45.17;26.55;;;4.10;99.90;;;;;;5075910;28;20020;-67
2023/01/05 05:16:29;;;;;;;58.85;35.30;;;4.10;99.90;;;;;;5093548;28;20052;-70
2023/01/05 05:18:54;;;;;;;56.33;32.40;;;4.20;99.90;;;;;;5094015;28;20467;-69
2023/01/05 05:21:20;;;;;;;41.95;26.88;;;4.20;99.90;;;;;;5075632;28;20107;-64
2023/01/05 05:23:46;;;;;;;79.57;44.30;;;4.20;99.90;;;;;;5093829;28;20024;-60
2023/01/05 05:26:11;;;;;;;59.28;35.25;;;4.20;99.90;;;;;;5093823;28;20020;-67
2023/01/05 05:28:37;;;;;;;70.80;42.60;;;4.20;99.90;;;;;;5075580;28;20028;-66
2023/01/05 05:31:03;;;;;;;64.30;41.28;;;4.20;99.90;;;;;;5093841;28;20039;-66
2023/01/05 05:33:28;;;;;;;62.40;38.38;;;4.10;99.90;;;;;;5093927;28;20427;-68
2023/01/05 05:35:54;;;;;;;70.05;40.13;;;4.10;99.90;;;;;;5093424;28;20032;-68
2023/01/05 05:38:20;;;;;;;79.03;44.33;;;4.10;99.90;;;;;;5093850;28;20032;-64
2023/01/05 05:40:48;;;;;;;58.38;38.28;;;4.10;99.90;;;;;;5096848;28;20021;-67
2023/01/05 05:43:14;;;;;;;74.15;43.67;;;4.10;99.90;;;;;;5097762;28;20035;-64
2023/01/05 05:45:39;;;;;;;140.80;88.22;;;4.20;99.90;;;;;;5097671;28;20028;-62
2023/01/05 05:48:05;;;;;;;185.77;116.82;;;4.20;99.90;;;;;;5097383;28;20459;-65
2023/01/05 05:50:31;;;;;;;173.38;106.43;;;4.00;99.90;;;;;;5097367;28;20024;-68
2023/01/05 05:52:57;;;;;;;155.68;91.85;;;3.90;99.90;;;;;;5097544;28;20098;-64
2023/01/05 05:55:22;;;;;;;208.18;122.22;;;3.80;99.90;;;;;;5097393;28;20473;-64
2023/01/05 05:57:48;;;;;;;146.43;91.75;;;3.80;99.90;;;;;;5097428;28;20481;-69
2023/01/05 06:00:14;;;;;;;131.98;82.13;;;3.80;99.90;;;;;;5097323;28;20028;-68
2023/01/05 06:02:40;;;;;;;120.40;72.55;;;3.90;99.90;;;;;;5097204;28;20031;-68
2023/01/05 06:05:06;;;;;;;101.68;62.58;;;3.90;99.90;;;;;;5079085;28;20028;-64
2023/01/05 06:07:31;;;;;;;90.43;58.78;;;4.00;99.90;;;;;;5097224;28;20024;-65
2023/01/05 06:09:57;;;;;;;85.78;50.95;;;4.00;99.90;;;;;;5097107;28;20031;-64
2023/01/05 06:12:23;;;;;;;74.72;46.75;;;4.10;99.90;;;;;;5096924;28;20020;-66
2023/01/05 06:14:48;;;;;;;64.45;40.17;;;4.10;99.90;;;;;;5096736;28;20481;-64
2023/01/05 06:17:14;;;;;;;55.67;36.20;;;4.00;99.90;;;;;;5096783;28;20023;-64
2023/01/05 06:19:40;;;;;;;55.92;33.97;;;4.10;99.90;;;;;;5096396;28;20097;-67
2023/01/05 06:22:06;;;;;;;50.42;30.83;;;4.10;99.90;;;;;;5096920;28;20024;-67
2023/01/05 06:24:31;;;;;;;49.50;31.98;;;4.10;99.90;;;;;;5096714;28;20042;-62
2023/01/05 06:26:57;;;;;;;153.55;97.72;;;4.10;99.90;;;;;;5096536;28;20498;-60
2023/01/05 06:29:23;;;;;;;184.18;113.22;;;3.90;99.90;;;;;;5096610;28;20021;-64
2023/01/05 06:31:48;;;;;;;176.68;107.95;;;3.70;99.90;;;;;;5096735;28;20390;-65
2023/01/05 06:34:14;;;;;;;143.65;87.35;;;3.60;99.90;;;;;;5096285;28;20018;-67
2023/01/05 06:36:40;;;;;;;122.38;73.47;;;3.70;99.90;;;;;;5096386;28;20028;-65
2023/01/05 06:39:06;;;;;;;101.82;65.05;;;3.70;99.90;;;;;;5096165;28;20429;-61
2023/01/05 06:41:34;;;;;;;95.18;61.33;;;3.80;99.90;;;;;;5096199;28;20012;-64
2023/01/05 06:44:00;;;;;;;89.55;55.25;;;4.00;99.90;;;;;;5077969;28;20115;-65
2023/01/05 06:46:26;;;;;;;94.07;55.78;;;4.10;99.90;;;;;;5096115;28;20103;-64
2023/01/05 06:48:52;;;;;;;139.30;81.22;;;4.20;99.90;;;;;;5096244;28;20099;-69
2023/01/05 06:51:18;;;;;;;114.35;66.57;;;4.20;99.90;;;;;;5077122;28;20058;-66
2023/01/05 06:53:44;;;;;;;102.03;65.20;;;4.20;99.90;;;;;;5096166;28;20024;-70
2023/01/05 06:56:09;;;;;;;96.50;58.30;;;4.30;99.90;;;;;;5095888;28;20055;-64
2023/01/05 06:58:35;;;;;;;78.43;52.88;;;4.40;99.90;;;;;;5077711;28;20498;-63
2023/01/05 07:01:01;;;;;;;71.45;46.72;;;4.50;99.90;;;;;;5095790;28;20486;-68
2023/01/05 07:03:27;;;;;;;60.85;40.20;;;4.50;99.90;;;;;;5078044;28;20387;-69
2023/01/05 07:05:52;;;;;;;57.53;39.45;;;4.60;99.90;;;;;;5096041;28;20020;-67
2023/01/05 07:08:18;;;;;;;54.85;36.85;;;4.70;99.90;;;;;;5095887;28;20020;-64
2023/01/05 07:10:44;;;;;;;55.10;35.08;;;4.70;99.90;;;;;;5095598;28;20443;-67
2023/01/05 07:13:09;;;;;;;42.22;28.95;;;4.80;99.90;;;;;;5095885;28;20066;-70
2023/01/05 07:15:35;;;;;;;52.13;35.42;;;4.90;99.90;;;;;;5077241;28;20063;-67
2023/01/05 07:18:01;;;;;;;54.58;35.83;;;5.00;99.90;;;;;;5095659;28;20455;-67
2023/01/05 07:20:26;;;;;;;45.97;32.28;;;5.10;99.90;;;;;;5093896;28;20034;-68
2023/01/05 07:22:52;;;;;;;46.17;32.03;;;5.20;99.90;;;;;;5093797;28;20026;-68
2023/01/05 07:25:18;;;;;;;59.60;40.03;;;5.30;99.90;;;;;;5094902;28;20103;-67
2023/01/05 07:27:48;;;;;;;77.93;47.83;;;5.40;99.90;;;;;;5095393;28;20024;-66
2023/01/05 07:30:14;;;;;;;54.40;37.42;;;5.40;99.90;;;;;;5094523;28;20024;-65
2023/01/05 07:32:39;;;;;;;59.00;42.13;;;5.40;99.90;;;;;;5094434;28;20020;-67
2023/01/05 07:35:05;;;;;;;69.15;45.78;;;5.50;99.90;;;;;;5076174;28;20036;-70
2023/01/05 07:37:31;;;;;;;51.67;38.65;;;5.60;99.90;;;;;;5094995;28;20058;-70
2023/01/05 07:39:57;;;;;;;50.40;37.28;;;5.70;99.90;;;;;;5089288;28;20099;-64
2023/01/05 07:42:24;;;;;;;54.00;40.15;;;5.70;99.90;;;;;;5094450;28;20463;-62
2023/01/05 07:44:51;;;;;;;61.63;42.65;;;5.70;99.90;;;;;;5093029;28;20044;-63
2023/01/05 07:47:17;;;;;;;53.85;38.30;;;5.80;99.90;;;;;;5094356;28;20099;-64
2023/01/05 07:49:43;;;;;;;54.25;39.88;;;5.80;99.90;;;;;;5094307;28;20024;-62
2023/01/05 07:52:08;;;;;;;49.15;36.55;;;5.90;99.90;;;;;;5094037;28;20019;-65
2023/01/05 07:54:34;;;;;;;75.88;50.97;;;5.90;99.90;;;;;;5093151;28;20072;-67
2023/01/05 07:57:00;;;;;;;352.42;187.52;;;5.80;99.90;;;;;;5092863;28;20024;-62
2023/01/05 07:59:26;;;;;;;267.75;148.35;;;5.80;99.90;;;;;;5093234;28;20051;-63
2023/01/05 08:01:51;;;;;;;230.90;131.00;;;5.60;99.90;;;;;;5093821;28;20055;-61
2023/01/05 08:04:17;;;;;;;182.93;106.57;;;5.60;99.90;;;;;;5093116;28;20038;-64
2023/01/05 08:06:43;;;;;;;161.80;94.93;;;5.70;99.90;;;;;;5092675;28;20114;-66
2023/01/05 08:11:54;;;;;;;91.72;55.38;;;6.10;99.90;;;;;;5092374;28;20039;-65
2023/01/05 08:14:20;;;;;;;85.78;52.45;;;6.10;99.90;;;;;;5092960;28;20020;-65
2023/01/05 08:16:45;;;;;;;75.75;48.47;;;6.30;99.90;;;;;;5091888;28;20028;-64
2023/01/05 08:19:11;;;;;;;65.78;43.72;;;6.80;99.90;;;;;;5092074;28;20077;-66
2023/01/05 08:21:37;;;;;;;55.80;38.50;;;7.30;99.90;;;;;;5090886;28;20512;-63
2023/01/05 08:24:03;;;;;;;61.05;41.22;;;7.70;99.90;;;;;;5090855;28;20024;-66
2023/01/05 08:26:29;;;;;;;60.05;41.40;;;8.00;99.90;;;;;;5091272;28;20057;-64
2023/01/05 08:28:54;;;;;;;85.95;51.90;;;8.10;99.90;;;;;;5092042;28;20028;-66
2023/01/05 08:31:29;;;;;;;65.35;44.63;;;8.10;99.90;;;;;;5092713;28;20016;-64
2023/01/05 08:33:58;;;;;;;65.13;45.45;;;8.50;99.90;;;;;;5092827;28;20051;-66
2023/01/05 08:36:25;;;;;;;72.72;48.72;;;8.50;99.90;;;;;;5092904;28;20115;-65
2023/01/05 08:38:52;;;;;;;106.85;66.50;;;8.30;99.90;;;;;;5075769;28;20028;-65
2023/01/05 08:41:23;;;;;;;108.80;69.25;;;8.40;99.90;;;;;;5093597;28;20090;-62
2023/01/05 08:43:51;;;;;;;150.82;98.68;;;8.60;99.90;;;;;;5093667;28;20017;-63
2023/01/05 08:46:18;;;;;;;165.57;111.97;;;8.50;99.90;;;;;;5075662;28;20118;-63
2023/01/05 08:48:47;;;;;;;191.45;125.07;;;8.20;99.90;;;;;;5093632;28;20016;-64
2023/01/05 08:51:13;;;;;;;173.00;113.82;;;8.80;99.90;;;;;;5092626;28;20078;-66
2023/01/05 08:53:39;;;;;;;161.02;112.65;;;9.00;99.90;;;;;;5074710;28;20024;-61
2023/01/05 08:56:05;;;;;;;253.52;169.93;;;9.00;99.90;;;;;;5093379;28;20502;-61
2023/01/05 08:58:30;;;;;;;202.25;139.27;;;9.00;99.90;;;;;;5092114;28;20052;-61
2023/01/05 09:00:57;;;;;;;173.55;121.57;;;9.20;99.90;;;;;;5093532;28;20072;-63
2023/01/05 09:03:23;;;;;;;173.80;121.85;;;10.10;99.90;;;;;;5093724;28;20076;-65
2023/01/05 09:05:52;;;;;;;210.65;149.52;;;10.90;99.90;;;;;;5093391;28;20032;-64
2023/01/05 09:08:17;;;;;;;151.85;113.00;;;11.30;99.90;;;;;;5093281;28;20047;-66
2023/01/05 09:10:43;;;;;;;139.15;102.72;;;11.10;99.90;;;;;;5092144;28;20470;-65
2023/01/05 09:13:09;;;;;;;132.13;98.35;;;11.20;99.90;;;;;;5093420;28;20028;-64
2023/01/05 09:15:35;;;;;;;145.45;108.47;;;11.30;99.90;;;;;;5091611;28;20032;-65
2023/01/05 09:18:01;;;;;;;162.00;117.13;;;11.40;99.90;;;;;;5074170;28;20012;-66
2023/01/05 09:20:26;;;;;;;115.28;90.75;;;11.30;99.90;;;;;;5072003;28;20038;-62
2023/01/05 09:22:52;;;;;;;104.57;82.45;;;11.20;99.90;;;;;;5093258;28;20419;-64
2023/01/05 09:25:18;;;;;;;92.43;71.57;;;11.20;99.90;;;;;;5093546;28;20377;-67
2023/01/05 09:27:43;;;;;;;85.35;68.72;;;11.60;99.90;;;;;;5093001;28;20027;-68
2023/01/05 09:30:10;;;;;;;76.43;62.85;;;11.90;99.90;;;;;;5092407;28;20028;-65
2023/01/05 09:32:36;;;;;;;68.85;57.58;;;12.40;99.90;;;;;;5092787;28;20024;-68
2023/01/05 09:35:02;;;;;;;62.67;53.17;;;12.90;99.90;;;;;;5092747;28;20028;-68
2023/01/05 09:37:28;;;;;;;57.00;47.35;;;13.30;99.90;;;;;;5091703;28;20047;-62
2023/01/05 09:39:53;;;;;;;50.08;42.03;;;13.60;98.90;;;;;;5090866;28;20024;-68
2023/01/05 09:42:22;;;;;;;44.47;36.05;;;13.90;99.20;;;;;;5093555;28;20338;-66
2023/01/05 09:44:54;;;;;;;78.03;58.63;;;14.10;99.70;;;;;;5091730;28;20043;-66
2023/01/05 09:47:24;;;;;;;100.05;75.65;;;14.40;86.90;;;;;;5093024;28;20028;-70
2023/01/05 09:49:51;;;;;;;74.47;59.72;;;14.40;88.10;;;;;;5091375;28;20016;-64
2023/01/05 09:52:21;;;;;;;114.32;86.75;;;14.60;94.90;;;;;;5093626;28;20374;-64
2023/01/05 09:54:47;;;;;;;100.40;82.97;;;14.90;75.50;;;;;;5091741;28;20020;-65
2023/01/05 09:57:20;;;;;;;86.68;73.90;;;15.00;88.30;;;;;;5091812;28;20428;-66
2023/01/05 09:59:50;;;;;;;83.05;73.55;;;15.30;75.30;;;;;;5089621;28;20047;-65
2023/01/05 10:02:33;;;;;;;95.38;80.65;;;15.60;68.00;;;;;;5089603;28;20107;-66
2023/01/05 10:05:01;;;;;;;97.68;83.70;;;16.00;63.30;;;;;;5089280;28;20099;-69
2023/01/05 10:07:41;;;;;;;90.15;78.68;;;16.30;59.10;;;;;;5090145;28;20492;-63
2023/01/05 10:10:36;;;;;;;82.53;73.25;;;16.50;59.40;;;;;;5091605;28;20518;-65
2023/01/05 10:13:05;;;;;;;80.65;70.50;;;16.60;59.80;;;;;;5072400;28;20020;-66
2023/01/05 10:15:44;;;;;;;77.13;66.63;;;16.70;60.30;;;;;;5072528;28;20028;-67
2023/01/05 10:18:16;;;;;;;58.25;49.88;;;16.80;57.40;;;;;;5072979;28;20490;-66
2023/01/05 10:21:20;;;;;;;54.20;47.67;;;16.90;59.50;;;;;;5080636;28;20050;-64
2023/01/05 10:24:02;;;;;;;49.67;43.92;;;16.90;54.60;;;;;;5092568;28;20105;-68
2023/01/05 10:26:43;;;;;;;50.00;44.53;;;17.00;57.50;;;;;;5094976;28;20032;-63
2023/01/05 10:29:12;;;;;;;50.10;44.70;;;17.00;55.00;;;;;;5096401;28;20035;-66
2023/01/05 10:31:57;;;;;;;73.53;62.38;;;17.20;53.40;;;;;;5096333;28;20073;-64
2023/01/05 10:34:53;;;;;;;53.70;47.78;;;17.30;53.40;;;;;;5096206;28;20028;-64
2023/01/05 10:37:21;;;;;;;56.70;49.28;;;17.30;53.30;;;;;;5095060;28;20028;-68
2023/01/05 10:39:53;;;;;;;51.78;46.28;;;17.30;52.80;;;;;;5095363;28;20039;-63
2023/01/05 10:42:46;;;;;;;49.20;43.95;;;17.30;51.70;;;;;;5095436;28;20039;-61
2023/01/05 10:45:15;;;;;;;48.42;43.22;;;17.50;51.40;;;;;;5096066;28;20051;-65
2023/01/05 10:47:42;;;;;;;50.88;45.42;;;17.60;52.00;;;;;;5095581;28;20020;-62
2023/01/05 10:50:19;;;;;;;46.72;41.70;;;17.60;52.50;;;;;;5091106;28;20158;-63
2023/01/05 10:52:46;;;;;;;48.10;43.08;;;17.60;53.00;;;;;;5090862;28;20024;-65
2023/01/05 10:55:16;;;;;;;54.38;45.42;;;17.50;51.40;;;;;;5074909;28;20025;-66
2023/01/05 10:57:42;;;;;;;52.75;43.67;;;17.40;51.10;;;;;;5057408;28;20030;-66
2023/01/05 11:00:10;;;;;;;57.85;45.60;;;17.10;51.90;;;;;;5086912;28;20110;-63
2023/01/05 11:02:45;;;;;;;51.97;42.00;;;17.20;51.30;;;;;;5094505;28;20115;-68
2023/01/05 11:05:24;;;;;;;41.30;34.72;;;17.20;50.70;;;;;;5093670;28;20028;-68
2023/01/05 11:07:57;;;;;;;39.53;32.58;;;17.00;50.60;;;;;;5073757;28;20020;-66
2023/01/05 11:10:32;;;;;;;33.85;29.42;;;17.10;50.50;;;;;;5081508;28;20028;-67
2023/01/05 11:13:16;;;;;;;31.92;28.25;;;17.10;51.20;;;;;;5073063;28;20124;-63
2023/01/05 11:15:45;;;;;;;36.03;30.65;;;17.00;51.30;;;;;;5084554;28;20158;-64
2023/01/05 11:18:29;;;;;;;30.10;26.85;;;17.00;50.60;;;;;;5074464;28;20035;-65
2023/01/05 11:21:14;;;;;;;34.88;28.48;;;17.00;50.90;;;;;;5087666;28;20024;-64
2023/01/05 11:23:46;;;;;;;30.60;26.73;;;17.00;49.90;;;;;;5075222;28;20478;-63
2023/01/05 11:26:36;;;;;;;27.10;23.65;;;16.80;51.00;;;;;;5094359;28;20106;-63
2023/01/05 11:29:07;;;;;;;25.67;22.48;;;16.90;50.70;;;;;;5093705;28;20027;-64
2023/01/05 11:31:58;;;;;;;24.08;21.58;;;17.20;49.70;;;;;;5092011;28;20093;-61
2023/01/05 11:34:37;;;;;;;22.38;20.08;;;17.40;48.80;;;;;;5091914;28;20027;-65
2023/01/05 11:37:15;;;;;;;19.83;17.83;;;17.40;48.90;;;;;;5092666;28;20036;-63
2023/01/05 11:39:55;;;;;;;20.42;18.23;;;17.50;49.40;;;;;;5092333;28;20054;-66
2023/01/05 11:42:24;;;;;;;20.00;17.83;;;17.60;50.20;;;;;;5092118;28;20023;-65
2023/01/05 11:45:00;;;;;;;23.98;21.38;;;17.80;51.00;;;;;;5092776;28;20050;-65
2023/01/05 11:47:36;;;;;;;26.98;23.92;;;17.90;50.30;;;;;;5094013;28;20359;-62
2023/01/05 11:50:02;;;;;;;30.90;27.00;;;18.10;48.10;;;;;;5094543;28;20016;-61
2023/01/05 11:52:41;;;;;;;32.20;28.42;;;18.30;47.40;;;;;;5094597;28;20093;-65
2023/01/05 11:55:18;;;;;;;39.40;34.83;;;18.60;46.60;;;;;;5095151;28;20032;-62
2023/01/05 11:57:48;;;;;;;39.85;34.95;;;18.80;46.30;;;;;;5076683;28;20031;-62
2023/01/05 12:00:32;;;;;;;41.25;36.58;;;18.90;46.00;;;;;;5095019;28;20027;-68
2023/01/05 12:03:20;;;;;;;38.60;34.45;;;19.00;46.90;;;;;;5093638;28;20020;-61
2023/01/05 12:05:49;;;;;;;31.67;28.38;;;19.10;45.60;;;;;;5094093;28;20048;-66
2023/01/05 12:08:20;;;;;;;31.73;28.38;;;19.20;44.70;;;;;;5093987;28;20016;-62
2023/01/05 12:10:54;;;;;;;23.67;21.17;;;19.30;45.10;;;;;;5093896;28;20099;-63
2023/01/05 12:13:53;;;;;;;19.73;17.73;;;19.20;44.40;;;;;;5094672;28;20052;-63
2023/01/05 12:16:48;;;;;;;14.38;12.90;;;19.20;45.00;;;;;;5073848;28;20501;-63
2023/01/05 12:19:43;;;;;;;13.52;12.23;;;19.40;44.20;;;;;;5089577;28;20371;-64
2023/01/05 12:22:12;;;;;;;10.55;9.50;;;19.20;42.70;;;;;;5093159;28;20038;-64
2023/01/05 12:25:04;;;;;;;10.75;9.77;;;19.10;42.20;;;;;;5092323;28;20024;-66
2023/01/05 12:28:06;;;;;;;10.63;9.63;;;19.20;43.20;;;;;;5091426;28;20026;-66
2023/01/05 12:30:45;;;;;;;10.07;9.05;;;19.20;42.70;;;;;;5092875;28;20477;-64
2023/01/05 12:33:35;;;;;;;9.15;8.25;;;19.20;41.90;;;;;;5093458;28;20027;-63
2023/01/05 12:36:10;;;;;;;10.10;9.10;;;19.10;42.80;;;;;;5093246;28;20063;-66
2023/01/05 12:38:36;;;;;;;11.30;9.63;;;19.30;43.40;;;;;;5093964;28;20031;-61
2023/01/05 12:41:35;;;;;;;8.35;7.50;;;19.40;43.60;;;;;;5094302;28;20020;-66
2023/01/05 12:44:19;;;;;;;8.43;7.55;;;19.50;41.90;;;;;;5093210;28;20021;-65
2023/01/05 12:47:08;;;;;;;8.40;7.60;;;19.60;42.10;;;;;;5093687;28;20363;-66
2023/01/05 12:49:40;;;;;;;10.68;9.57;;;19.60;42.40;;;;;;5093319;28;20377;-63
2023/01/05 12:52:13;;;;;;;18.20;14.30;;;19.70;42.60;;;;;;5092679;28;20016;-62
2023/01/05 12:54:46;;;;;;;13.90;12.50;;;19.50;42.00;;;;;;5093803;28;20549;-66
2023/01/05 12:57:28;;;;;;;37.17;31.40;;;19.20;43.00;;;;;;5093851;28;20036;-65
2023/01/05 13:00:20;;;;;;;56.83;50.60;;;19.20;45.40;;;;;;5094008;28;20498;-65
2023/01/05 13:02:56;;;;;;;83.95;66.45;;;19.20;45.60;;;;;;5090252;28;20032;-61
2023/01/05 13:05:38;;;;;;;84.32;67.95;;;18.90;46.70;;;;;;5093972;28;20015;-63
2023/01/05 13:08:19;;;;;;;67.97;51.42;;;18.60;49.00;;;;;;5094251;28;20074;-65
2023/01/05 13:11:09;;;;;;;51.50;41.08;;;18.50;46.80;;;;;;5094343;28;20049;-65
2023/01/05 13:13:40;;;;;;;56.08;45.72;;;18.60;45.10;;;;;;5076089;28;20095;-63
2023/01/05 13:16:26;;;;;;;43.17;37.22;;;18.70;45.40;;;;;;5093891;28;20081;-63
2023/01/05 13:19:17;;;;;;;41.28;35.83;;;18.70;45.60;;;;;;5075794;28;20486;-60
2023/01/05 13:21:45;;;;;;;42.72;38.10;;;19.00;45.70;;;;;;5093936;28;20081;-63